Alpena, MI

2:57 AM EDT on October 02, 2014 (GMT -0400)
Presque Isle County | Change Station
CLOSE
Current Station
Airport
Location: Rogers City,
Elevation: 669 ft
Nearby Weather Stations

Elev 669 ft 45.41 °N, 83.81 °W | Updated -456 second ago

Fog
Fog
52 °F
Feels Like 52 °F
N
6
Wind Variable Wind from ESE

Today
High -- | Low -- °F
--% Chance of Precip.
Yesterday
High -- | Low -- °F
Precip. -- in
7:33 AM 7:12 PM
First Quarter, 55% visible
Pressure 30.08 in
Visibility 7.0 miles
Clouds Overcast 600 ft
Dew Point 52 °F
Humidity 100%
Rainfall 0.00 in
Snow Depth Not available.
UV 0 out of 12
Pollen 1.80 out of 12
PM2.5 Good
Flu Activity Not available.
METAR KPZQ 010705Z AUTO 12005KT 7SM OVC006 11/11 A3008 RMK AO2

More Conditions Fewer Conditions

Pressure 30.08 in
Visibility 7.0 miles
Clouds Overcast 600 ft
Dew Point 52 °F
Humidity 100%
Rainfall 0.00 in
Snow Depth Not available.
UV 0 out of 12
Pollen 1.80 out of 12
PM2.5 Good
Flu Activity Not available.
METAR KPZQ 010705Z AUTO 12005KT 7SM OVC006 11/11 A3008 RMK AO2

More Conditions Fewer Conditions

Nowcast | as of 2:00 am EDT on October 2, 2014

At 3 am...partly cloudy. Areas of fog. Temperature 54. South winds 6 mph. At 5 am...mostly cloudy. Areas of fog. Temperature 54. South winds 6 mph. At 7 am...mostly cloudy. Areas of fog. Temperature 52. South winds 7 mph. At 9 am...cloudy. Slight chance of rain showers. Temperature 54. South winds 8 mph.

×

10-Day Weather Forecast

Almanac

Astronomy

Oct. 02, 2014 Rise Set
Actual Time 7:33 AM EDT 7:12 PM EDT
Civil Twilight 7:03 AM EDT 7:41 PM EDT
Nautical Twilight 6:29 AM EDT 8:15 PM EDT
Astronomical Twilight 5:55 AM EDT 8:50 PM EDT
Moon 3:31 PM EDT 12:34 AM EDT
Length of Visible Light 12h 37m
Length of Day
11h 39m
Tomorrow will be 3m 7s shorter.
First Quarter, 55% of the Moon is Illuminated
Today
First Quarter
Oct 8
Full
Oct 15
Last Quarter
Oct 23
New
Oct 30
First Quarter

Today's Extremes

State Highs State Lows

Community

WunderPhotos

Upload Photos

1,758,198 photos uploaded!

WunderBlogs® & News

By Dr. Jeff Masters
Director of Meteorology, Weather Underground
By Kari Strenfel
Meteorologist, Weather Underground
By Christopher C. Burt
Weather Historian, Weather Underground
October 2, 2014
October 2, 2014
October 2, 2014

Nearby

Air Quality

  Air Quality AQ Index Pollutant
Yesterday Good
PM2.5
Yesterday Good
OZONE
Current Good
PM2.5
Thursday Good
OZONE
Thursday Good
PM2.5
Friday Good
OZONE
Friday Good
PM2.5
Saturday Good
OZONE
Saturday Good
PM2.5

Snow Depth

Station Depth Elevation
No new snow has been reported.

Earthquake Activity

City Distance Mag. Time & Date
No recent earthquake activity has been reported nearby.
Minimum magnitude displayed is 2.5.

Coastal Water Temperatures

Place Temperature
Alpena, MI 60.1 °F

Nearby Weather Stations